sensor_id;sensor_type;location;lat;lon;timestamp;P1;durP1;ratioP1;P2;durP2;ratioP2
40997;SDS011;26740;45.944;12.480;2023-03-01T00:00:18;15.70;;;8.20;;
40997;SDS011;26740;45.944;12.480;2023-03-01T00:02:44;17.70;;;7.72;;
40997;SDS011;26740;45.944;12.480;2023-03-01T00:05:09;13.88;;;8.25;;
40997;SDS011;26740;45.944;12.480;2023-03-01T00:07:35;16.00;;;8.23;;
40997;SDS011;26740;45.944;12.480;2023-03-01T00:10:00;14.18;;;8.02;;
40997;SDS011;26740;45.944;12.480;2023-03-01T00:12:26;15.95;;;7.07;;
40997;SDS011;26740;45.944;12.480;2023-03-01T00:14:52;16.63;;;7.63;;
40997;SDS011;26740;45.944;12.480;2023-03-01T00:17:18;14.27;;;7.10;;
40997;SDS011;26740;45.944;12.480;2023-03-01T00:19:43;16.33;;;8.48;;
40997;SDS011;26740;45.944;12.480;2023-03-01T00:22:09;18.27;;;8.52;;
40997;SDS011;26740;45.944;12.480;2023-03-01T00:24:35;13.40;;;6.68;;
40997;SDS011;26740;45.944;12.480;2023-03-01T00:27:00;14.00;;;7.38;;
40997;SDS011;26740;45.944;12.480;2023-03-01T00:29:26;16.60;;;7.72;;
40997;SDS011;26740;45.944;12.480;2023-03-01T00:31:51;12.75;;;6.93;;
40997;SDS011;26740;45.944;12.480;2023-03-01T00:34:17;14.35;;;6.10;;
40997;SDS011;26740;45.944;12.480;2023-03-01T00:36:43;11.70;;;6.75;;
40997;SDS011;26740;45.944;12.480;2023-03-01T00:39:12;12.27;;;7.22;;
40997;SDS011;26740;45.944;12.480;2023-03-01T00:41:39;14.57;;;7.20;;
40997;SDS011;26740;45.944;12.480;2023-03-01T00:44:05;12.75;;;6.93;;
40997;SDS011;26740;45.944;12.480;2023-03-01T00:46:30;16.58;;;7.15;;
40997;SDS011;26740;45.944;12.480;2023-03-01T00:48:56;14.07;;;6.38;;
40997;SDS011;26740;45.944;12.480;2023-03-01T00:51:26;14.10;;;6.72;;
40997;SDS011;26740;45.944;12.480;2023-03-01T00:53:53;17.08;;;7.00;;
40997;SDS011;26740;45.944;12.480;2023-03-01T00:56:20;14.48;;;6.28;;
40997;SDS011;26740;45.944;12.480;2023-03-01T00:58:46;12.70;;;5.82;;
40997;SDS011;26740;45.944;12.480;2023-03-01T01:01:15;13.30;;;5.82;;
40997;SDS011;26740;45.944;12.480;2023-03-01T01:03:44;14.30;;;6.63;;
40997;SDS011;26740;45.944;12.480;2023-03-01T01:06:21;13.25;;;6.53;;
40997;SDS011;26740;45.944;12.480;2023-03-01T01:08:52;12.40;;;5.85;;
40997;SDS011;26740;45.944;12.480;2023-03-01T01:11:19;14.52;;;5.97;;
40997;SDS011;26740;45.944;12.480;2023-03-01T01:13:46;13.15;;;6.07;;
40997;SDS011;26740;45.944;12.480;2023-03-01T01:16:13;18.00;;;6.13;;
40997;SDS011;26740;45.944;12.480;2023-03-01T01:18:39;14.20;;;5.90;;
40997;SDS011;26740;45.944;12.480;2023-03-01T01:21:06;11.88;;;6.07;;
40997;SDS011;26740;45.944;12.480;2023-03-01T01:23:33;13.35;;;5.88;;
40997;SDS011;26740;45.944;12.480;2023-03-01T01:26:06;12.23;;;5.80;;
40997;SDS011;26740;45.944;12.480;2023-03-01T01:28:34;14.18;;;5.55;;
40997;SDS011;26740;45.944;12.480;2023-03-01T01:30:59;10.18;;;5.18;;
40997;SDS011;26740;45.944;12.480;2023-03-01T01:33:25;11.65;;;5.28;;
40997;SDS011;26740;45.944;12.480;2023-03-01T01:35:51;14.00;;;5.72;;
40997;SDS011;26740;45.944;12.480;2023-03-01T01:38:18;11.40;;;6.32;;
40997;SDS011;26740;45.944;12.480;2023-03-01T01:40:44;9.55;;;4.15;;
40997;SDS011;26740;45.944;12.480;2023-03-01T01:43:25;10.43;;;4.75;;
40997;SDS011;26740;45.944;12.480;2023-03-01T01:45:54;9.38;;;3.83;;
40997;SDS011;26740;45.944;12.480;2023-03-01T01:48:23;6.97;;;4.13;;
40997;SDS011;26740;45.944;12.480;2023-03-01T01:51:06;9.63;;;3.97;;
40997;SDS011;26740;45.944;12.480;2023-03-01T01:53:36;9.45;;;3.70;;
40997;SDS011;26740;45.944;12.480;2023-03-01T01:56:03;9.52;;;4.50;;
40997;SDS011;26740;45.944;12.480;2023-03-01T01:58:32;9.15;;;5.72;;
40997;SDS011;26740;45.944;12.480;2023-03-01T02:00:58;10.20;;;5.28;;
40997;SDS011;26740;45.944;12.480;2023-03-01T02:03:27;9.65;;;4.97;;
40997;SDS011;26740;45.944;12.480;2023-03-01T02:06:20;15.65;;;5.55;;
40997;SDS011;26740;45.944;12.480;2023-03-01T02:08:44;9.43;;;5.28;;
40997;SDS011;26740;45.944;12.480;2023-03-01T02:11:12;11.20;;;5.88;;
40997;SDS011;26740;45.944;12.480;2023-03-01T02:13:39;14.32;;;6.03;;
40997;SDS011;26740;45.944;12.480;2023-03-01T02:16:09;9.23;;;5.10;;
40997;SDS011;26740;45.944;12.480;2023-03-01T02:18:38;13.07;;;5.75;;
40997;SDS011;26740;45.944;12.480;2023-03-01T02:26:50;11.10;;;5.15;;
40997;SDS011;26740;45.944;12.480;2023-03-01T02:29:20;11.55;;;5.63;;
40997;SDS011;26740;45.944;12.480;2023-03-01T02:31:46;10.73;;;5.03;;
40997;SDS011;26740;45.944;12.480;2023-03-01T02:34:17;13.60;;;5.63;;
40997;SDS011;26740;45.944;12.480;2023-03-01T02:36:59;10.20;;;5.95;;
40997;SDS011;26740;45.944;12.480;2023-03-01T02:40:15;11.20;;;5.18;;
40997;SDS011;26740;45.944;12.480;2023-03-01T02:42:26;12.82;;;4.95;;
40997;SDS011;26740;45.944;12.480;2023-03-01T02:44:56;12.27;;;4.78;;
40997;SDS011;26740;45.944;12.480;2023-03-01T02:47:22;11.50;;;4.70;;
40997;SDS011;26740;45.944;12.480;2023-03-01T02:49:48;10.68;;;5.10;;
40997;SDS011;26740;45.944;12.480;2023-03-01T02:54:54;8.40;;;4.38;;
40997;SDS011;26740;45.944;12.480;2023-03-01T02:57:25;19.48;;;4.28;;
40997;SDS011;26740;45.944;12.480;2023-03-01T02:59:53;8.02;;;3.80;;
40997;SDS011;26740;45.944;12.480;2023-03-01T03:02:25;8.05;;;3.28;;
40997;SDS011;26740;45.944;12.480;2023-03-01T03:07:52;7.68;;;2.97;;
40997;SDS011;26740;45.944;12.480;2023-03-01T03:10:20;6.45;;;3.35;;
40997;SDS011;26740;45.944;12.480;2023-03-01T03:12:51;11.38;;;3.80;;
40997;SDS011;26740;45.944;12.480;2023-03-01T03:15:20;8.65;;;4.45;;
40997;SDS011;26740;45.944;12.480;2023-03-01T03:17:46;12.20;;;5.32;;
40997;SDS011;26740;45.944;12.480;2023-03-01T03:20:14;11.63;;;5.00;;
40997;SDS011;26740;45.944;12.480;2023-03-01T03:22:47;9.80;;;5.10;;
40997;SDS011;26740;45.944;12.480;2023-03-01T03:25:15;9.68;;;5.28;;
40997;SDS011;26740;45.944;12.480;2023-03-01T03:27:42;9.52;;;4.30;;
40997;SDS011;26740;45.944;12.480;2023-03-01T03:30:10;11.57;;;5.43;;
40997;SDS011;26740;45.944;12.480;2023-03-01T03:32:42;9.18;;;4.55;;
40997;SDS011;26740;45.944;12.480;2023-03-01T03:35:25;9.73;;;4.38;;
40997;SDS011;26740;45.944;12.480;2023-03-01T03:37:55;9.90;;;4.85;;
40997;SDS011;26740;45.944;12.480;2023-03-01T03:40:29;13.93;;;5.35;;
40997;SDS011;26740;45.944;12.480;2023-03-01T03:42:57;10.63;;;4.77;;
40997;SDS011;26740;45.944;12.480;2023-03-01T03:45:23;12.82;;;5.32;;
40997;SDS011;26740;45.944;12.480;2023-03-01T03:47:49;10.43;;;5.07;;
40997;SDS011;26740;45.944;12.480;2023-03-01T03:50:15;11.07;;;5.13;;
40997;SDS011;26740;45.944;12.480;2023-03-01T03:52:42;9.68;;;4.60;;
40997;SDS011;26740;45.944;12.480;2023-03-01T03:55:08;11.32;;;5.55;;
40997;SDS011;26740;45.944;12.480;2023-03-01T03:57:35;12.40;;;5.78;;
40997;SDS011;26740;45.944;12.480;2023-03-01T04:00:02;16.40;;;6.57;;
40997;SDS011;26740;45.944;12.480;2023-03-01T04:02:30;15.38;;;6.35;;
40997;SDS011;26740;45.944;12.480;2023-03-01T04:04:56;19.52;;;6.35;;
40997;SDS011;26740;45.944;12.480;2023-03-01T04:07:22;14.98;;;6.90;;
40997;SDS011;26740;45.944;12.480;2023-03-01T04:09:47;13.05;;;6.15;;
40997;SDS011;26740;45.944;12.480;2023-03-01T04:12:13;12.35;;;5.75;;
40997;SDS011;26740;45.944;12.480;2023-03-01T04:14:39;11.18;;;4.93;;
40997;SDS011;26740;45.944;12.480;2023-03-01T04:17:05;7.25;;;3.75;;
40997;SDS011;26740;45.944;12.480;2023-03-01T04:19:33;11.70;;;5.95;;
40997;SDS011;26740;45.944;12.480;2023-03-01T04:22:01;8.82;;;4.85;;
40997;SDS011;26740;45.944;12.480;2023-03-01T04:24:34;16.30;;;5.00;;
40997;SDS011;26740;45.944;12.480;2023-03-01T04:27:00;9.75;;;3.97;;
40997;SDS011;26740;45.944;12.480;2023-03-01T04:29:26;10.35;;;4.68;;
40997;SDS011;26740;45.944;12.480;2023-03-01T04:31:52;9.77;;;4.47;;
40997;SDS011;26740;45.944;12.480;2023-03-01T04:34:18;8.57;;;4.43;;
40997;SDS011;26740;45.944;12.480;2023-03-01T04:36:43;9.32;;;4.88;;
40997;SDS011;26740;45.944;12.480;2023-03-01T04:39:09;10.07;;;4.88;;
40997;SDS011;26740;45.944;12.480;2023-03-01T04:41:37;14.20;;;5.43;;
40997;SDS011;26740;45.944;12.480;2023-03-01T04:44:04;10.23;;;5.30;;
40997;SDS011;26740;45.944;12.480;2023-03-01T04:46:30;13.85;;;5.38;;
40997;SDS011;26740;45.944;12.480;2023-03-01T04:48:56;8.80;;;4.60;;
40997;SDS011;26740;45.944;12.480;2023-03-01T04:51:21;9.85;;;4.97;;
40997;SDS011;26740;45.944;12.480;2023-03-01T04:53:47;9.48;;;3.88;;
40997;SDS011;26740;45.944;12.480;2023-03-01T04:56:13;11.10;;;4.38;;
40997;SDS011;26740;45.944;12.480;2023-03-01T04:58:39;9.75;;;3.75;;
40997;SDS011;26740;45.944;12.480;2023-03-01T05:01:08;8.75;;;4.10;;
40997;SDS011;26740;45.944;12.480;2023-03-01T05:03:48;9.60;;;3.90;;
40997;SDS011;26740;45.944;12.480;2023-03-01T05:06:15;10.10;;;3.58;;
40997;SDS011;26740;45.944;12.480;2023-03-01T05:08:42;8.40;;;4.05;;
40997;SDS011;26740;45.944;12.480;2023-03-01T05:11:08;8.90;;;4.65;;
40997;SDS011;26740;45.944;12.480;2023-03-01T05:13:35;7.63;;;3.95;;
40997;SDS011;26740;45.944;12.480;2023-03-01T05:16:02;6.25;;;3.75;;
40997;SDS011;26740;45.944;12.480;2023-03-01T05:18:30;9.13;;;4.07;;
40997;SDS011;26740;45.944;12.480;2023-03-01T05:21:06;9.15;;;4.22;;
40997;SDS011;26740;45.944;12.480;2023-03-01T05:23:34;10.52;;;3.90;;
40997;SDS011;26740;45.944;12.480;2023-03-01T05:26:01;8.13;;;4.18;;
40997;SDS011;26740;45.944;12.480;2023-03-01T05:28:29;7.47;;;3.17;;
40997;SDS011;26740;45.944;12.480;2023-03-01T05:30:55;7.20;;;3.47;;
40997;SDS011;26740;45.944;12.480;2023-03-01T05:33:21;6.72;;;2.83;;
40997;SDS011;26740;45.944;12.480;2023-03-01T05:35:48;6.68;;;3.65;;
40997;SDS011;26740;45.944;12.480;2023-03-01T05:38:15;9.82;;;3.72;;
40997;SDS011;26740;45.944;12.480;2023-03-01T05:40:42;6.38;;;2.72;;
40997;SDS011;26740;45.944;12.480;2023-03-01T05:43:08;7.95;;;3.78;;
40997;SDS011;26740;45.944;12.480;2023-03-01T05:45:35;6.32;;;3.25;;
40997;SDS011;26740;45.944;12.480;2023-03-01T05:48:02;9.10;;;3.80;;
40997;SDS011;26740;45.944;12.480;2023-03-01T05:50:31;13.27;;;3.97;;
40997;SDS011;26740;45.944;12.480;2023-03-01T05:53:03;9.88;;;4.22;;
40997;SDS011;26740;45.944;12.480;2023-03-01T05:55:31;5.00;;;2.90;;
40997;SDS011;26740;45.944;12.480;2023-03-01T05:57:58;9.98;;;3.25;;
40997;SDS011;26740;45.944;12.480;2023-03-01T06:00:31;6.40;;;3.25;;
40997;SDS011;26740;45.944;12.480;2023-03-01T06:02:57;8.43;;;3.17;;
40997;SDS011;26740;45.944;12.480;2023-03-01T06:05:24;9.18;;;2.90;;
40997;SDS011;26740;45.944;12.480;2023-03-01T06:07:50;5.03;;;2.67;;
40997;SDS011;26740;45.944;12.480;2023-03-01T06:10:17;4.85;;;2.45;;
40997;SDS011;26740;45.944;12.480;2023-03-01T06:12:44;4.97;;;2.53;;
40997;SDS011;26740;45.944;12.480;2023-03-01T06:15:11;7.78;;;2.28;;
40997;SDS011;26740;45.944;12.480;2023-03-01T06:17:38;7.68;;;2.53;;
40997;SDS011;26740;45.944;12.480;2023-03-01T06:22:37;5.45;;;2.35;;
40997;SDS011;26740;45.944;12.480;2023-03-01T06:25:03;4.53;;;1.80;;
40997;SDS011;26740;45.944;12.480;2023-03-01T06:27:30;7.00;;;2.88;;
40997;SDS011;26740;45.944;12.480;2023-03-01T06:29:55;4.75;;;2.55;;
40997;SDS011;26740;45.944;12.480;2023-03-01T06:32:21;6.57;;;2.95;;
40997;SDS011;26740;45.944;12.480;2023-03-01T06:34:47;3.88;;;2.25;;
40997;SDS011;26740;45.944;12.480;2023-03-01T06:37:12;5.80;;;2.50;;
40997;SDS011;26740;45.944;12.480;2023-03-01T06:39:38;8.90;;;3.05;;
40997;SDS011;26740;45.944;12.480;2023-03-01T06:42:04;6.10;;;2.00;;
40997;SDS011;26740;45.944;12.480;2023-03-01T06:44:30;9.57;;;3.80;;
40997;SDS011;26740;45.944;12.480;2023-03-01T06:46:55;10.32;;;3.85;;
40997;SDS011;26740;45.944;12.480;2023-03-01T06:49:21;6.15;;;2.70;;
40997;SDS011;26740;45.944;12.480;2023-03-01T06:51:46;8.15;;;3.72;;
40997;SDS011;26740;45.944;12.480;2023-03-01T06:54:12;6.57;;;3.22;;
40997;SDS011;26740;45.944;12.480;2023-03-01T06:56:37;12.48;;;3.47;;
40997;SDS011;26740;45.944;12.480;2023-03-01T06:59:03;8.13;;;3.33;;
40997;SDS011;26740;45.944;12.480;2023-03-01T07:01:29;3.78;;;2.38;;
40997;SDS011;26740;45.944;12.480;2023-03-01T07:03:55;7.90;;;3.30;;
40997;SDS011;26740;45.944;12.480;2023-03-01T07:06:22;6.00;;;2.95;;
40997;SDS011;26740;45.944;12.480;2023-03-01T07:08:48;4.20;;;2.45;;
40997;SDS011;26740;45.944;12.480;2023-03-01T07:11:14;5.32;;;2.70;;
40997;SDS011;26740;45.944;12.480;2023-03-01T07:13:40;8.90;;;5.15;;
40997;SDS011;26740;45.944;12.480;2023-03-01T07:16:06;17.40;;;10.55;;
40997;SDS011;26740;45.944;12.480;2023-03-01T07:18:32;27.13;;;15.77;;
40997;SDS011;26740;45.944;12.480;2023-03-01T07:20:58;26.38;;;12.55;;
40997;SDS011;26740;45.944;12.480;2023-03-01T07:23:23;27.38;;;13.93;;
40997;SDS011;26740;45.944;12.480;2023-03-01T07:25:55;16.45;;;9.60;;
40997;SDS011;26740;45.944;12.480;2023-03-01T07:28:22;8.00;;;4.35;;
40997;SDS011;26740;45.944;12.480;2023-03-01T07:30:48;4.00;;;1.98;;
40997;SDS011;26740;45.944;12.480;2023-03-01T07:33:14;4.22;;;2.38;;
40997;SDS011;26740;45.944;12.480;2023-03-01T07:35:39;4.28;;;2.47;;
40997;SDS011;26740;45.944;12.480;2023-03-01T07:38:05;5.15;;;2.72;;
40997;SDS011;26740;45.944;12.480;2023-03-01T07:40:30;7.22;;;2.80;;
40997;SDS011;26740;45.944;12.480;2023-03-01T07:42:57;9.15;;;2.28;;
40997;SDS011;26740;45.944;12.480;2023-03-01T07:45:23;6.40;;;2.50;;
40997;SDS011;26740;45.944;12.480;2023-03-01T07:47:50;7.40;;;2.80;;
40997;SDS011;26740;45.944;12.480;2023-03-01T07:50:17;4.50;;;2.63;;
40997;SDS011;26740;45.944;12.480;2023-03-01T07:52:46;8.27;;;2.72;;
40997;SDS011;26740;45.944;12.480;2023-03-01T07:55:13;10.15;;;7.05;;
40997;SDS011;26740;45.944;12.480;2023-03-01T07:57:38;6.75;;;4.20;;
40997;SDS011;26740;45.944;12.480;2023-03-01T08:00:04;5.05;;;2.80;;
40997;SDS011;26740;45.944;12.480;2023-03-01T08:02:31;6.07;;;3.20;;
40997;SDS011;26740;45.944;12.480;2023-03-01T08:04:57;7.25;;;2.67;;
40997;SDS011;26740;45.944;12.480;2023-03-01T08:07:22;7.63;;;2.45;;
40997;SDS011;26740;45.944;12.480;2023-03-01T08:09:48;7.70;;;2.10;;
40997;SDS011;26740;45.944;12.480;2023-03-01T08:12:14;17.73;;;2.85;;
40997;SDS011;26740;45.944;12.480;2023-03-01T08:14:41;6.13;;;2.00;;
40997;SDS011;26740;45.944;12.480;2023-03-01T08:17:07;3.45;;;2.05;;
40997;SDS011;26740;45.944;12.480;2023-03-01T08:19:32;7.47;;;2.42;;
40997;SDS011;26740;45.944;12.480;2023-03-01T08:22:00;4.28;;;2.03;;
40997;SDS011;26740;45.944;12.480;2023-03-01T08:24:26;5.47;;;1.88;;
40997;SDS011;26740;45.944;12.480;2023-03-01T08:29:28;7.47;;;2.22;;
40997;SDS011;26740;45.944;12.480;2023-03-01T08:35:06;4.57;;;2.33;;
40997;SDS011;26740;45.944;12.480;2023-03-01T08:37:53;12.18;;;2.83;;
40997;SDS011;26740;45.944;12.480;2023-03-01T08:40:19;14.77;;;3.15;;
40997;SDS011;26740;45.944;12.480;2023-03-01T08:42:44;10.60;;;3.00;;
40997;SDS011;26740;45.944;12.480;2023-03-01T08:45:11;7.93;;;2.80;;
40997;SDS011;26740;45.944;12.480;2023-03-01T08:47:37;6.25;;;3.33;;
40997;SDS011;26740;45.944;12.480;2023-03-01T08:50:03;5.65;;;3.00;;
40997;SDS011;26740;45.944;12.480;2023-03-01T08:52:30;9.50;;;3.55;;
40997;SDS011;26740;45.944;12.480;2023-03-01T08:54:57;8.25;;;2.83;;
40997;SDS011;26740;45.944;12.480;2023-03-01T08:57:23;7.25;;;2.33;;
40997;SDS011;26740;45.944;12.480;2023-03-01T08:59:48;3.00;;;1.73;;
40997;SDS011;26740;45.944;12.480;2023-03-01T09:02:17;7.25;;;1.40;;
40997;SDS011;26740;45.944;12.480;2023-03-01T09:04:44;4.95;;;1.50;;
40997;SDS011;26740;45.944;12.480;2023-03-01T09:07:09;11.38;;;2.17;;
40997;SDS011;26740;45.944;12.480;2023-03-01T09:09:36;7.65;;;1.65;;
40997;SDS011;26740;45.944;12.480;2023-03-01T09:12:05;8.13;;;2.00;;
40997;SDS011;26740;45.944;12.480;2023-03-01T09:14:31;10.32;;;1.48;;
40997;SDS011;26740;45.944;12.480;2023-03-01T09:16:57;2.15;;;1.13;;
40997;SDS011;26740;45.944;12.480;2023-03-01T09:19:22;8.80;;;1.40;;
40997;SDS011;26740;45.944;12.480;2023-03-01T09:21:48;5.03;;;1.60;;
40997;SDS011;26740;45.944;12.480;2023-03-01T09:24:22;4.93;;;1.25;;
40997;SDS011;26740;45.944;12.480;2023-03-01T09:26:49;5.32;;;1.20;;
40997;SDS011;26740;45.944;12.480;2023-03-01T09:29:15;4.65;;;1.20;;
40997;SDS011;26740;45.944;12.480;2023-03-01T09:31:42;4.30;;;1.17;;
40997;SDS011;26740;45.944;12.480;2023-03-01T09:34:08;6.50;;;1.90;;
40997;SDS011;26740;45.944;12.480;2023-03-01T09:36:34;2.58;;;0.90;;
40997;SDS011;26740;45.944;12.480;2023-03-01T09:39:00;7.18;;;1.70;;
40997;SDS011;26740;45.944;12.480;2023-03-01T09:44:12;2.22;;;0.70;;
40997;SDS011;26740;45.944;12.480;2023-03-01T09:46:46;5.10;;;1.00;;
40997;SDS011;26740;45.944;12.480;2023-03-01T09:49:20;4.18;;;1.30;;
40997;SDS011;26740;45.944;12.480;2023-03-01T09:51:56;11.65;;;1.52;;
40997;SDS011;26740;45.944;12.480;2023-03-01T09:54:29;4.22;;;1.05;;
40997;SDS011;26740;45.944;12.480;2023-03-01T09:59:56;8.20;;;1.15;;
40997;SDS011;26740;45.944;12.480;2023-03-01T10:02:28;4.40;;;1.80;;
40997;SDS011;26740;45.944;12.480;2023-03-01T10:05:50;3.22;;;1.95;;
40997;SDS011;26740;45.944;12.480;2023-03-01T10:08:06;5.03;;;1.83;;
40997;SDS011;26740;45.944;12.480;2023-03-01T10:10:49;8.98;;;2.13;;
40997;SDS011;26740;45.944;12.480;2023-03-01T10:15:47;6.28;;;3.17;;
40997;SDS011;26740;45.944;12.480;2023-03-01T10:18:27;7.13;;;2.50;;
40997;SDS011;26740;45.944;12.480;2023-03-01T10:21:17;7.88;;;2.92;;
40997;SDS011;26740;45.944;12.480;2023-03-01T10:23:44;8.05;;;3.08;;
40997;SDS011;26740;45.944;12.480;2023-03-01T10:29:12;4.00;;;2.42;;
40997;SDS011;26740;45.944;12.480;2023-03-01T10:31:41;9.45;;;2.20;;
40997;SDS011;26740;45.944;12.480;2023-03-01T10:34:19;9.32;;;2.63;;
40997;SDS011;26740;45.944;12.480;2023-03-01T10:36:48;11.95;;;2.80;;
40997;SDS011;26740;45.944;12.480;2023-03-01T10:39:20;9.65;;;3.08;;
40997;SDS011;26740;45.944;12.480;2023-03-01T10:42:00;11.32;;;3.92;;
40997;SDS011;26740;45.944;12.480;2023-03-01T10:44:39;12.07;;;5.45;;
40997;SDS011;26740;45.944;12.480;2023-03-01T10:47:12;9.15;;;3.85;;
40997;SDS011;26740;45.944;12.480;2023-03-01T10:49:55;19.15;;;7.22;;
40997;SDS011;26740;45.944;12.480;2023-03-01T10:52:30;9.20;;;3.97;;
40997;SDS011;26740;45.944;12.480;2023-03-01T10:55:23;10.90;;;3.00;;
40997;SDS011;26740;45.944;12.480;2023-03-01T10:58:06;8.68;;;3.03;;
40997;SDS011;26740;45.944;12.480;2023-03-01T11:00:34;13.13;;;3.90;;
40997;SDS011;26740;45.944;12.480;2023-03-01T11:03:13;8.10;;;3.95;;
40997;SDS011;26740;45.944;12.480;2023-03-01T11:05:52;8.77;;;4.03;;
40997;SDS011;26740;45.944;12.480;2023-03-01T11:16:38;8.55;;;2.95;;
40997;SDS011;26740;45.944;12.480;2023-03-01T11:21:47;7.65;;;2.33;;
40997;SDS011;26740;45.944;12.480;2023-03-01T11:25:07;16.63;;;2.38;;
40997;SDS011;26740;45.944;12.480;2023-03-01T11:27:22;9.25;;;2.05;;
40997;SDS011;26740;45.944;12.480;2023-03-01T11:32:33;13.55;;;2.58;;
40997;SDS011;26740;45.944;12.480;2023-03-01T11:35:17;9.52;;;3.15;;
40997;SDS011;26740;45.944;12.480;2023-03-01T11:40:43;8.85;;;2.92;;
40997;SDS011;26740;45.944;12.480;2023-03-01T11:51:05;8.73;;;2.28;;
40997;SDS011;26740;45.944;12.480;2023-03-01T11:53:47;7.85;;;2.42;;
40997;SDS011;26740;45.944;12.480;2023-03-01T11:56:37;10.93;;;2.38;;
40997;SDS011;26740;45.944;12.480;2023-03-01T12:10:34;5.57;;;1.65;;
40997;SDS011;26740;45.944;12.480;2023-03-01T12:16:00;6.43;;;1.40;;
40997;SDS011;26740;45.944;12.480;2023-03-01T12:26:34;4.65;;;1.48;;
40997;SDS011;26740;45.944;12.480;2023-03-01T12:34:25;4.68;;;2.45;;
40997;SDS011;26740;45.944;12.480;2023-03-01T12:50:35;4.93;;;2.05;;
40997;SDS011;26740;45.944;12.480;2023-03-01T12:53:16;10.88;;;1.88;;
40997;SDS011;26740;45.944;12.480;2023-03-01T12:55:48;7.85;;;2.30;;
40997;SDS011;26740;45.944;12.480;2023-03-01T12:58:28;3.70;;;1.83;;
40997;SDS011;26740;45.944;12.480;2023-03-01T13:04:07;7.13;;;3.17;;
40997;SDS011;26740;45.944;12.480;2023-03-01T13:15:24;5.47;;;1.85;;
40997;SDS011;26740;45.944;12.480;2023-03-01T13:18:01;5.43;;;2.15;;
40997;SDS011;26740;45.944;12.480;2023-03-01T13:30:57;10.63;;;2.80;;
40997;SDS011;26740;45.944;12.480;2023-03-01T13:35:48;8.05;;;2.53;;
40997;SDS011;26740;45.944;12.480;2023-03-01T13:41:11;4.13;;;2.22;;
40997;SDS011;26740;45.944;12.480;2023-03-01T13:43:42;6.72;;;2.25;;
40997;SDS011;26740;45.944;12.480;2023-03-01T13:46:14;11.27;;;2.17;;
40997;SDS011;26740;45.944;12.480;2023-03-01T13:48:52;6.88;;;1.92;;
40997;SDS011;26740;45.944;12.480;2023-03-01T13:51:23;7.75;;;2.80;;
40997;SDS011;26740;45.944;12.480;2023-03-01T13:53:51;4.97;;;1.98;;
40997;SDS011;26740;45.944;12.480;2023-03-01T13:56:25;9.10;;;2.03;;
40997;SDS011;26740;45.944;12.480;2023-03-01T13:59:01;7.10;;;2.28;;
40997;SDS011;26740;45.944;12.480;2023-03-01T14:01:31;7.97;;;1.90;;
40997;SDS011;26740;45.944;12.480;2023-03-01T14:03:59;5.60;;;2.20;;
40997;SDS011;26740;45.944;12.480;2023-03-01T14:06:30;10.15;;;2.47;;
40997;SDS011;26740;45.944;12.480;2023-03-01T14:11:37;10.30;;;2.70;;
40997;SDS011;26740;45.944;12.480;2023-03-01T14:19:38;10.48;;;2.42;;
40997;SDS011;26740;45.944;12.480;2023-03-01T14:25:16;8.63;;;2.42;;
40997;SDS011;26740;45.944;12.480;2023-03-01T14:28:10;13.82;;;3.88;;
40997;SDS011;26740;45.944;12.480;2023-03-01T14:30:42;10.88;;;3.47;;
40997;SDS011;26740;45.944;12.480;2023-03-01T14:33:18;8.13;;;2.75;;
40997;SDS011;26740;45.944;12.480;2023-03-01T14:35:59;15.30;;;2.85;;
40997;SDS011;26740;45.944;12.480;2023-03-01T14:38:37;13.40;;;2.35;;
40997;SDS011;26740;45.944;12.480;2023-03-01T14:41:11;13.88;;;3.47;;
40997;SDS011;26740;45.944;12.480;2023-03-01T14:43:44;12.40;;;3.65;;
40997;SDS011;26740;45.944;12.480;2023-03-01T14:46:19;15.80;;;8.25;;
40997;SDS011;26740;45.944;12.480;2023-03-01T14:49:31;10.68;;;3.03;;
40997;SDS011;26740;45.944;12.480;2023-03-01T14:51:41;6.30;;;2.88;;
40997;SDS011;26740;45.944;12.480;2023-03-01T14:54:21;17.83;;;3.88;;
40997;SDS011;26740;45.944;12.480;2023-03-01T14:56:51;8.52;;;3.85;;
40997;SDS011;26740;45.944;12.480;2023-03-01T14:59:27;16.58;;;2.97;;
40997;SDS011;26740;45.944;12.480;2023-03-01T15:01:53;6.32;;;2.47;;
40997;SDS011;26740;45.944;12.480;2023-03-01T15:04:22;8.75;;;3.03;;
40997;SDS011;26740;45.944;12.480;2023-03-01T15:06:55;10.63;;;3.40;;
40997;SDS011;26740;45.944;12.480;2023-03-01T15:11:56;13.65;;;4.20;;
40997;SDS011;26740;45.944;12.480;2023-03-01T15:14:25;9.35;;;2.92;;
40997;SDS011;26740;45.944;12.480;2023-03-01T15:16:51;9.82;;;3.20;;
40997;SDS011;26740;45.944;12.480;2023-03-01T15:29:36;14.98;;;3.47;;
40997;SDS011;26740;45.944;12.480;2023-03-01T15:32:06;17.65;;;3.67;;
40997;SDS011;26740;45.944;12.480;2023-03-01T15:34:57;12.73;;;3.70;;
40997;SDS011;26740;45.944;12.480;2023-03-01T15:37:40;11.02;;;3.90;;
40997;SDS011;26740;45.944;12.480;2023-03-01T15:40:22;20.98;;;3.70;;
40997;SDS011;26740;45.944;12.480;2023-03-01T15:42:56;17.73;;;5.20;;
40997;SDS011;26740;45.944;12.480;2023-03-01T15:45:23;15.63;;;4.32;;
40997;SDS011;26740;45.944;12.480;2023-03-01T15:47:58;7.63;;;3.80;;
40997;SDS011;26740;45.944;12.480;2023-03-01T15:50:34;8.00;;;4.07;;
40997;SDS011;26740;45.944;12.480;2023-03-01T15:53:05;9.35;;;4.13;;
40997;SDS011;26740;45.944;12.480;2023-03-01T15:55:33;15.80;;;4.78;;
40997;SDS011;26740;45.944;12.480;2023-03-01T15:58:00;14.65;;;4.30;;
40997;SDS011;26740;45.944;12.480;2023-03-01T16:00:49;13.70;;;4.00;;
40997;SDS011;26740;45.944;12.480;2023-03-01T16:03:21;13.77;;;3.80;;
40997;SDS011;26740;45.944;12.480;2023-03-01T16:05:47;10.15;;;4.47;;
40997;SDS011;26740;45.944;12.480;2023-03-01T16:08:14;11.70;;;4.13;;
40997;SDS011;26740;45.944;12.480;2023-03-01T16:10:40;6.35;;;3.95;;
40997;SDS011;26740;45.944;12.480;2023-03-01T16:13:09;13.35;;;4.15;;
40997;SDS011;26740;45.944;12.480;2023-03-01T16:15:35;12.05;;;4.72;;
40997;SDS011;26740;45.944;12.480;2023-03-01T16:18:01;28.98;;;7.65;;
40997;SDS011;26740;45.944;12.480;2023-03-01T16:20:28;10.65;;;5.70;;
40997;SDS011;26740;45.944;12.480;2023-03-01T16:22:55;15.27;;;4.28;;
40997;SDS011;26740;45.944;12.480;2023-03-01T16:25:24;16.20;;;5.00;;
40997;SDS011;26740;45.944;12.480;2023-03-01T16:27:50;17.35;;;5.25;;
40997;SDS011;26740;45.944;12.480;2023-03-01T16:30:18;14.25;;;5.47;;
40997;SDS011;26740;45.944;12.480;2023-03-01T16:32:45;14.88;;;5.47;;
40997;SDS011;26740;45.944;12.480;2023-03-01T16:35:13;13.65;;;7.28;;
40997;SDS011;26740;45.944;12.480;2023-03-01T16:37:40;18.25;;;5.82;;
40997;SDS011;26740;45.944;12.480;2023-03-01T16:40:11;15.05;;;6.22;;
40997;SDS011;26740;45.944;12.480;2023-03-01T16:42:42;25.65;;;8.18;;
40997;SDS011;26740;45.944;12.480;2023-03-01T16:45:08;18.50;;;6.43;;
40997;SDS011;26740;45.944;12.480;2023-03-01T16:47:34;8.20;;;4.80;;
40997;SDS011;26740;45.944;12.480;2023-03-01T16:49:59;11.52;;;5.45;;
40997;SDS011;26740;45.944;12.480;2023-03-01T16:52:25;14.50;;;6.15;;
40997;SDS011;26740;45.944;12.480;2023-03-01T16:54:51;13.13;;;6.13;;
40997;SDS011;26740;45.944;12.480;2023-03-01T16:57:16;17.23;;;5.65;;
40997;SDS011;26740;45.944;12.480;2023-03-01T16:59:42;12.02;;;5.47;;
40997;SDS011;26740;45.944;12.480;2023-03-01T17:04:43;12.07;;;5.13;;
40997;SDS011;26740;45.944;12.480;2023-03-01T17:07:08;13.93;;;5.85;;
40997;SDS011;26740;45.944;12.480;2023-03-01T17:09:34;17.58;;;6.18;;
40997;SDS011;26740;45.944;12.480;2023-03-01T17:12:01;9.63;;;5.00;;